sensor_id;sensor_type;location;lat;lon;timestamp;P1;durP1;ratioP1;P2;durP2;ratioP2
10399;SDS011;10031;51.180;17.168;2023-02-26T00:01:34;9.70;;;4.70;;
10399;SDS011;10031;51.180;17.168;2023-02-26T00:04:02;7.73;;;3.93;;
10399;SDS011;10031;51.180;17.168;2023-02-26T00:06:33;9.93;;;4.53;;
10399;SDS011;10031;51.180;17.168;2023-02-26T00:09:07;7.30;;;4.40;;
10399;SDS011;10031;51.180;17.168;2023-02-26T00:11:33;9.50;;;4.67;;
10399;SDS011;10031;51.180;17.168;2023-02-26T00:13:59;9.53;;;5.40;;
10399;SDS011;10031;51.180;17.168;2023-02-26T00:18:59;9.77;;;4.70;;
10399;SDS011;10031;51.180;17.168;2023-02-26T00:21:27;10.30;;;4.93;;
10399;SDS011;10031;51.180;17.168;2023-02-26T00:23:54;6.50;;;3.70;;
10399;SDS011;10031;51.180;17.168;2023-02-26T00:28:51;8.10;;;4.80;;
10399;SDS011;10031;51.180;17.168;2023-02-26T00:31:17;9.50;;;5.03;;
10399;SDS011;10031;51.180;17.168;2023-02-26T00:33:45;7.43;;;4.60;;
10399;SDS011;10031;51.180;17.168;2023-02-26T00:38:55;6.77;;;3.40;;
10399;SDS011;10031;51.180;17.168;2023-02-26T00:41:31;4.83;;;3.03;;
10399;SDS011;10031;51.180;17.168;2023-02-26T00:43:58;6.03;;;3.80;;
10399;SDS011;10031;51.180;17.168;2023-02-26T00:46:27;5.37;;;3.37;;
10399;SDS011;10031;51.180;17.168;2023-02-26T00:49:06;6.83;;;3.27;;
10399;SDS011;10031;51.180;17.168;2023-02-26T00:51:58;5.10;;;3.67;;
10399;SDS011;10031;51.180;17.168;2023-02-26T00:54:25;4.93;;;2.13;;
10399;SDS011;10031;51.180;17.168;2023-02-26T00:56:53;3.93;;;2.93;;
10399;SDS011;10031;51.180;17.168;2023-02-26T00:59:20;5.53;;;3.43;;
10399;SDS011;10031;51.180;17.168;2023-02-26T01:01:49;6.00;;;3.60;;
10399;SDS011;10031;51.180;17.168;2023-02-26T01:04:16;1.57;;;1.30;;
10399;SDS011;10031;51.180;17.168;2023-02-26T01:06:48;4.30;;;3.27;;
10399;SDS011;10031;51.180;17.168;2023-02-26T01:09:20;5.40;;;3.60;;
10399;SDS011;10031;51.180;17.168;2023-02-26T01:11:46;4.83;;;3.30;;
10399;SDS011;10031;51.180;17.168;2023-02-26T01:14:14;4.17;;;2.27;;
10399;SDS011;10031;51.180;17.168;2023-02-26T01:16:43;4.87;;;3.67;;
10399;SDS011;10031;51.180;17.168;2023-02-26T01:19:36;3.93;;;2.53;;
10399;SDS011;10031;51.180;17.168;2023-02-26T01:22:36;3.23;;;2.50;;
10399;SDS011;10031;51.180;17.168;2023-02-26T01:25:20;5.90;;;4.37;;
10399;SDS011;10031;51.180;17.168;2023-02-26T01:27:48;6.57;;;3.57;;
10399;SDS011;10031;51.180;17.168;2023-02-26T01:30:14;7.67;;;3.90;;
10399;SDS011;10031;51.180;17.168;2023-02-26T01:49:24;6.97;;;5.03;;
10399;SDS011;10031;51.180;17.168;2023-02-26T01:54:18;4.60;;;3.50;;
10399;SDS011;10031;51.180;17.168;2023-02-26T01:56:46;6.67;;;4.63;;
10399;SDS011;10031;51.180;17.168;2023-02-26T01:59:21;8.43;;;4.53;;
10399;SDS011;10031;51.180;17.168;2023-02-26T02:01:49;6.13;;;3.90;;
10399;SDS011;10031;51.180;17.168;2023-02-26T02:04:16;5.77;;;4.40;;
10399;SDS011;10031;51.180;17.168;2023-02-26T02:06:42;6.30;;;3.30;;
10399;SDS011;10031;51.180;17.168;2023-02-26T02:09:09;3.70;;;2.67;;
10399;SDS011;10031;51.180;17.168;2023-02-26T02:11:45;5.67;;;3.90;;
10399;SDS011;10031;51.180;17.168;2023-02-26T02:17:30;6.03;;;3.53;;
10399;SDS011;10031;51.180;17.168;2023-02-26T02:28:24;3.10;;;2.40;;
10399;SDS011;10031;51.180;17.168;2023-02-26T02:30:59;4.97;;;3.77;;
10399;SDS011;10031;51.180;17.168;2023-02-26T02:39:17;7.17;;;3.90;;
10399;SDS011;10031;51.180;17.168;2023-02-26T02:41:50;5.43;;;3.33;;
10399;SDS011;10031;51.180;17.168;2023-02-26T02:44:22;5.60;;;3.70;;
10399;SDS011;10031;51.180;17.168;2023-02-26T02:46:51;5.50;;;3.07;;
10399;SDS011;10031;51.180;17.168;2023-02-26T02:49:24;4.60;;;3.30;;
10399;SDS011;10031;51.180;17.168;2023-02-26T02:51:53;5.37;;;3.30;;
10399;SDS011;10031;51.180;17.168;2023-02-26T02:55:21;3.40;;;2.67;;
10399;SDS011;10031;51.180;17.168;2023-02-26T02:57:43;3.67;;;2.77;;
10399;SDS011;10031;51.180;17.168;2023-02-26T03:00:14;2.60;;;2.23;;
10399;SDS011;10031;51.180;17.168;2023-02-26T03:05:39;5.30;;;2.43;;
10399;SDS011;10031;51.180;17.168;2023-02-26T03:08:06;5.27;;;2.80;;
10399;SDS011;10031;51.180;17.168;2023-02-26T03:10:35;2.03;;;1.83;;
10399;SDS011;10031;51.180;17.168;2023-02-26T03:13:01;2.77;;;2.33;;
10399;SDS011;10031;51.180;17.168;2023-02-26T03:15:34;3.30;;;2.40;;
10399;SDS011;10031;51.180;17.168;2023-02-26T03:18:07;3.07;;;1.93;;
10399;SDS011;10031;51.180;17.168;2023-02-26T03:20:46;4.90;;;2.40;;
10399;SDS011;10031;51.180;17.168;2023-02-26T03:23:24;2.50;;;2.30;;
10399;SDS011;10031;51.180;17.168;2023-02-26T03:29:25;4.63;;;2.20;;
10399;SDS011;10031;51.180;17.168;2023-02-26T03:32:13;3.57;;;2.80;;
10399;SDS011;10031;51.180;17.168;2023-02-26T03:37:11;4.00;;;2.80;;
10399;SDS011;10031;51.180;17.168;2023-02-26T03:39:54;4.07;;;2.57;;
10399;SDS011;10031;51.180;17.168;2023-02-26T03:42:32;4.67;;;2.23;;
10399;SDS011;10031;51.180;17.168;2023-02-26T03:45:20;5.33;;;2.63;;
10399;SDS011;10031;51.180;17.168;2023-02-26T03:47:50;4.77;;;2.70;;
10399;SDS011;10031;51.180;17.168;2023-02-26T03:50:39;2.93;;;2.60;;
10399;SDS011;10031;51.180;17.168;2023-02-26T03:53:13;1.10;;;1.10;;
10399;SDS011;10031;51.180;17.168;2023-02-26T03:55:44;4.47;;;2.40;;
10399;SDS011;10031;51.180;17.168;2023-02-26T03:58:11;3.13;;;2.40;;
10399;SDS011;10031;51.180;17.168;2023-02-26T04:00:38;4.17;;;1.80;;
10399;SDS011;10031;51.180;17.168;2023-02-26T04:03:10;3.97;;;2.27;;
10399;SDS011;10031;51.180;17.168;2023-02-26T04:05:52;5.03;;;2.60;;
10399;SDS011;10031;51.180;17.168;2023-02-26T04:08:19;2.80;;;2.00;;
10399;SDS011;10031;51.180;17.168;2023-02-26T04:10:50;7.63;;;2.83;;
10399;SDS011;10031;51.180;17.168;2023-02-26T04:13:21;4.73;;;2.13;;
10399;SDS011;10031;51.180;17.168;2023-02-26T04:15:47;4.60;;;2.30;;
10399;SDS011;10031;51.180;17.168;2023-02-26T04:18:14;4.70;;;2.60;;
10399;SDS011;10031;51.180;17.168;2023-02-26T04:20:40;2.27;;;1.63;;
10399;SDS011;10031;51.180;17.168;2023-02-26T04:23:06;5.37;;;3.30;;
10399;SDS011;10031;51.180;17.168;2023-02-26T04:25:32;5.13;;;3.10;;
10399;SDS011;10031;51.180;17.168;2023-02-26T04:27:58;4.10;;;2.63;;
10399;SDS011;10031;51.180;17.168;2023-02-26T04:30:24;4.90;;;3.10;;
10399;SDS011;10031;51.180;17.168;2023-02-26T04:32:51;4.77;;;2.03;;
10399;SDS011;10031;51.180;17.168;2023-02-26T04:35:17;7.53;;;3.20;;
10399;SDS011;10031;51.180;17.168;2023-02-26T04:37:43;5.17;;;3.63;;
10399;SDS011;10031;51.180;17.168;2023-02-26T04:40:10;3.27;;;2.20;;
10399;SDS011;10031;51.180;17.168;2023-02-26T04:42:36;6.07;;;3.00;;
10399;SDS011;10031;51.180;17.168;2023-02-26T04:45:02;9.37;;;4.03;;
10399;SDS011;10031;51.180;17.168;2023-02-26T04:47:28;6.13;;;2.83;;
10399;SDS011;10031;51.180;17.168;2023-02-26T04:49:54;5.07;;;3.17;;
10399;SDS011;10031;51.180;17.168;2023-02-26T04:52:20;2.83;;;2.10;;
10399;SDS011;10031;51.180;17.168;2023-02-26T04:54:46;7.60;;;2.90;;
10399;SDS011;10031;51.180;17.168;2023-02-26T04:57:12;5.47;;;2.47;;
10399;SDS011;10031;51.180;17.168;2023-02-26T04:59:38;5.83;;;3.30;;
10399;SDS011;10031;51.180;17.168;2023-02-26T05:02:04;5.23;;;2.63;;
10399;SDS011;10031;51.180;17.168;2023-02-26T05:04:30;4.43;;;2.87;;
10399;SDS011;10031;51.180;17.168;2023-02-26T05:06:56;5.87;;;2.87;;
10399;SDS011;10031;51.180;17.168;2023-02-26T05:09:22;3.87;;;2.50;;
10399;SDS011;10031;51.180;17.168;2023-02-26T05:11:49;2.47;;;1.70;;
10399;SDS011;10031;51.180;17.168;2023-02-26T05:14:15;1.77;;;1.67;;
10399;SDS011;10031;51.180;17.168;2023-02-26T05:16:42;2.97;;;1.83;;
10399;SDS011;10031;51.180;17.168;2023-02-26T05:19:08;2.73;;;2.20;;
10399;SDS011;10031;51.180;17.168;2023-02-26T05:21:34;3.87;;;2.10;;
10399;SDS011;10031;51.180;17.168;2023-02-26T05:24:00;4.37;;;2.30;;
10399;SDS011;10031;51.180;17.168;2023-02-26T05:26:26;5.90;;;2.80;;
10399;SDS011;10031;51.180;17.168;2023-02-26T05:28:52;3.60;;;2.70;;
10399;SDS011;10031;51.180;17.168;2023-02-26T05:31:18;4.70;;;2.23;;
10399;SDS011;10031;51.180;17.168;2023-02-26T05:33:44;5.70;;;2.60;;
10399;SDS011;10031;51.180;17.168;2023-02-26T05:36:11;4.07;;;2.20;;
10399;SDS011;10031;51.180;17.168;2023-02-26T05:38:37;2.53;;;1.27;;
10399;SDS011;10031;51.180;17.168;2023-02-26T05:41:03;5.73;;;3.00;;
10399;SDS011;10031;51.180;17.168;2023-02-26T05:43:29;3.87;;;2.73;;
10399;SDS011;10031;51.180;17.168;2023-02-26T05:45:55;4.00;;;2.33;;
10399;SDS011;10031;51.180;17.168;2023-02-26T05:48:21;4.17;;;2.50;;
10399;SDS011;10031;51.180;17.168;2023-02-26T05:50:48;4.03;;;2.67;;
10399;SDS011;10031;51.180;17.168;2023-02-26T05:53:14;3.50;;;1.87;;
10399;SDS011;10031;51.180;17.168;2023-02-26T05:55:40;3.50;;;2.10;;
10399;SDS011;10031;51.180;17.168;2023-02-26T05:58:06;4.13;;;2.83;;
10399;SDS011;10031;51.180;17.168;2023-02-26T06:00:32;3.90;;;2.40;;
10399;SDS011;10031;51.180;17.168;2023-02-26T06:02:58;4.43;;;2.80;;
10399;SDS011;10031;51.180;17.168;2023-02-26T06:05:24;1.93;;;1.70;;
10399;SDS011;10031;51.180;17.168;2023-02-26T06:07:50;2.50;;;1.70;;
10399;SDS011;10031;51.180;17.168;2023-02-26T06:10:16;3.23;;;1.90;;
10399;SDS011;10031;51.180;17.168;2023-02-26T06:12:42;7.07;;;2.47;;
10399;SDS011;10031;51.180;17.168;2023-02-26T06:15:08;3.57;;;1.97;;
10399;SDS011;10031;51.180;17.168;2023-02-26T06:17:34;3.93;;;2.77;;
10399;SDS011;10031;51.180;17.168;2023-02-26T06:20:03;3.80;;;2.03;;
10399;SDS011;10031;51.180;17.168;2023-02-26T06:22:30;3.90;;;2.73;;
10399;SDS011;10031;51.180;17.168;2023-02-26T06:24:58;3.23;;;2.20;;
10399;SDS011;10031;51.180;17.168;2023-02-26T06:27:24;2.90;;;2.23;;
10399;SDS011;10031;51.180;17.168;2023-02-26T06:32:19;3.90;;;1.90;;
10399;SDS011;10031;51.180;17.168;2023-02-26T06:34:45;4.07;;;2.40;;
10399;SDS011;10031;51.180;17.168;2023-02-26T06:37:11;1.97;;;1.83;;
10399;SDS011;10031;51.180;17.168;2023-02-26T06:39:39;2.27;;;1.77;;
10399;SDS011;10031;51.180;17.168;2023-02-26T06:42:05;4.27;;;1.90;;
10399;SDS011;10031;51.180;17.168;2023-02-26T06:44:31;4.47;;;2.03;;
10399;SDS011;10031;51.180;17.168;2023-02-26T06:46:57;6.00;;;2.43;;
10399;SDS011;10031;51.180;17.168;2023-02-26T06:49:23;3.10;;;2.43;;
10399;SDS011;10031;51.180;17.168;2023-02-26T06:51:54;3.10;;;2.40;;
10399;SDS011;10031;51.180;17.168;2023-02-26T06:54:20;3.83;;;2.47;;
10399;SDS011;10031;51.180;17.168;2023-02-26T06:56:46;2.73;;;2.20;;
10399;SDS011;10031;51.180;17.168;2023-02-26T06:59:13;5.83;;;2.37;;
10399;SDS011;10031;51.180;17.168;2023-02-26T07:01:39;3.23;;;2.37;;
10399;SDS011;10031;51.180;17.168;2023-02-26T07:04:06;4.03;;;1.83;;
10399;SDS011;10031;51.180;17.168;2023-02-26T07:06:32;1.63;;;1.53;;
10399;SDS011;10031;51.180;17.168;2023-02-26T07:08:58;2.13;;;1.53;;
10399;SDS011;10031;51.180;17.168;2023-02-26T07:11:23;3.13;;;2.23;;
10399;SDS011;10031;51.180;17.168;2023-02-26T07:13:49;1.47;;;1.37;;
10399;SDS011;10031;51.180;17.168;2023-02-26T07:16:16;4.30;;;2.10;;
10399;SDS011;10031;51.180;17.168;2023-02-26T07:18:42;4.07;;;2.50;;
10399;SDS011;10031;51.180;17.168;2023-02-26T07:21:08;2.20;;;1.93;;
10399;SDS011;10031;51.180;17.168;2023-02-26T07:23:34;4.70;;;2.77;;
10399;SDS011;10031;51.180;17.168;2023-02-26T07:26:00;4.00;;;2.60;;
10399;SDS011;10031;51.180;17.168;2023-02-26T07:28:26;5.03;;;2.57;;
10399;SDS011;10031;51.180;17.168;2023-02-26T07:30:54;3.57;;;2.77;;
10399;SDS011;10031;51.180;17.168;2023-02-26T07:33:20;4.73;;;3.20;;
10399;SDS011;10031;51.180;17.168;2023-02-26T07:35:46;4.27;;;2.97;;
10399;SDS011;10031;51.180;17.168;2023-02-26T07:38:13;3.70;;;2.57;;
10399;SDS011;10031;51.180;17.168;2023-02-26T07:40:39;5.50;;;3.17;;
10399;SDS011;10031;51.180;17.168;2023-02-26T07:43:05;3.80;;;2.47;;
10399;SDS011;10031;51.180;17.168;2023-02-26T07:45:31;4.17;;;2.57;;
10399;SDS011;10031;51.180;17.168;2023-02-26T07:47:57;5.80;;;3.23;;
10399;SDS011;10031;51.180;17.168;2023-02-26T07:50:24;4.63;;;3.17;;
10399;SDS011;10031;51.180;17.168;2023-02-26T07:52:53;3.17;;;2.33;;
10399;SDS011;10031;51.180;17.168;2023-02-26T07:55:18;6.63;;;2.90;;
10399;SDS011;10031;51.180;17.168;2023-02-26T07:57:46;3.30;;;2.73;;
10399;SDS011;10031;51.180;17.168;2023-02-26T08:00:12;5.30;;;3.53;;
10399;SDS011;10031;51.180;17.168;2023-02-26T08:02:38;4.17;;;3.30;;
10399;SDS011;10031;51.180;17.168;2023-02-26T08:05:04;6.37;;;3.47;;
10399;SDS011;10031;51.180;17.168;2023-02-26T08:07:31;2.00;;;1.87;;
10399;SDS011;10031;51.180;17.168;2023-02-26T08:09:56;4.83;;;3.23;;
10399;SDS011;10031;51.180;17.168;2023-02-26T08:12:22;5.87;;;4.03;;
10399;SDS011;10031;51.180;17.168;2023-02-26T08:14:49;5.87;;;3.50;;
10399;SDS011;10031;51.180;17.168;2023-02-26T08:17:14;5.40;;;2.80;;
10399;SDS011;10031;51.180;17.168;2023-02-26T08:19:40;5.83;;;3.87;;
10399;SDS011;10031;51.180;17.168;2023-02-26T08:22:09;3.77;;;2.47;;
10399;SDS011;10031;51.180;17.168;2023-02-26T08:24:36;7.80;;;3.60;;
10399;SDS011;10031;51.180;17.168;2023-02-26T08:27:01;4.00;;;3.57;;
10399;SDS011;10031;51.180;17.168;2023-02-26T08:29:27;4.80;;;3.40;;
10399;SDS011;10031;51.180;17.168;2023-02-26T08:31:53;6.20;;;3.40;;
10399;SDS011;10031;51.180;17.168;2023-02-26T08:34:19;5.80;;;3.90;;
10399;SDS011;10031;51.180;17.168;2023-02-26T08:36:45;6.73;;;3.73;;
10399;SDS011;10031;51.180;17.168;2023-02-26T08:39:11;3.93;;;2.70;;
10399;SDS011;10031;51.180;17.168;2023-02-26T08:41:38;2.97;;;2.60;;
10399;SDS011;10031;51.180;17.168;2023-02-26T08:44:04;4.67;;;3.43;;
10399;SDS011;10031;51.180;17.168;2023-02-26T08:46:30;4.07;;;2.57;;
10399;SDS011;10031;51.180;17.168;2023-02-26T08:48:56;3.13;;;2.70;;
10399;SDS011;10031;51.180;17.168;2023-02-26T08:51:22;5.60;;;3.47;;
10399;SDS011;10031;51.180;17.168;2023-02-26T08:53:48;5.40;;;3.17;;
10399;SDS011;10031;51.180;17.168;2023-02-26T08:56:14;6.37;;;3.47;;
10399;SDS011;10031;51.180;17.168;2023-02-26T08:58:41;6.37;;;4.00;;
10399;SDS011;10031;51.180;17.168;2023-02-26T09:01:07;6.03;;;3.73;;
10399;SDS011;10031;51.180;17.168;2023-02-26T09:03:33;5.57;;;3.43;;
10399;SDS011;10031;51.180;17.168;2023-02-26T09:05:59;7.23;;;3.90;;
10399;SDS011;10031;51.180;17.168;2023-02-26T09:08:27;4.77;;;3.30;;
10399;SDS011;10031;51.180;17.168;2023-02-26T09:10:52;5.07;;;3.60;;
10399;SDS011;10031;51.180;17.168;2023-02-26T09:13:18;3.67;;;1.77;;
10399;SDS011;10031;51.180;17.168;2023-02-26T09:15:44;2.50;;;2.23;;
10399;SDS011;10031;51.180;17.168;2023-02-26T09:18:10;4.77;;;3.47;;
10399;SDS011;10031;51.180;17.168;2023-02-26T09:20:41;8.93;;;3.90;;
10399;SDS011;10031;51.180;17.168;2023-02-26T09:23:08;4.70;;;3.33;;
10399;SDS011;10031;51.180;17.168;2023-02-26T09:25:34;8.40;;;3.83;;
10399;SDS011;10031;51.180;17.168;2023-02-26T09:28:00;5.07;;;3.90;;
10399;SDS011;10031;51.180;17.168;2023-02-26T09:30:26;6.30;;;3.83;;
10399;SDS011;10031;51.180;17.168;2023-02-26T09:32:52;4.30;;;3.27;;
10399;SDS011;10031;51.180;17.168;2023-02-26T09:35:18;6.17;;;3.33;;
10399;SDS011;10031;51.180;17.168;2023-02-26T09:37:44;3.00;;;2.70;;
10399;SDS011;10031;51.180;17.168;2023-02-26T09:40:22;7.07;;;3.70;;
10399;SDS011;10031;51.180;17.168;2023-02-26T09:45:23;5.83;;;3.00;;
10399;SDS011;10031;51.180;17.168;2023-02-26T09:47:50;6.23;;;3.97;;
10399;SDS011;10031;51.180;17.168;2023-02-26T09:52:46;4.57;;;3.43;;
10399;SDS011;10031;51.180;17.168;2023-02-26T09:57:53;4.53;;;3.57;;
10399;SDS011;10031;51.180;17.168;2023-02-26T10:00:23;4.00;;;3.00;;
10399;SDS011;10031;51.180;17.168;2023-02-26T10:08:39;3.73;;;2.87;;
10399;SDS011;10031;51.180;17.168;2023-02-26T10:11:13;5.60;;;3.63;;
10399;SDS011;10031;51.180;17.168;2023-02-26T10:13:51;3.00;;;2.70;;
10399;SDS011;10031;51.180;17.168;2023-02-26T10:16:20;6.20;;;3.57;;
10399;SDS011;10031;51.180;17.168;2023-02-26T10:18:54;6.60;;;3.50;;
10399;SDS011;10031;51.180;17.168;2023-02-26T10:21:22;4.73;;;3.77;;
10399;SDS011;10031;51.180;17.168;2023-02-26T10:23:51;5.67;;;3.70;;
10399;SDS011;10031;51.180;17.168;2023-02-26T10:26:21;4.43;;;3.20;;
10399;SDS011;10031;51.180;17.168;2023-02-26T10:28:52;8.07;;;3.83;;
10399;SDS011;10031;51.180;17.168;2023-02-26T10:34:12;9.77;;;4.60;;
10399;SDS011;10031;51.180;17.168;2023-02-26T10:36:46;5.77;;;3.53;;
10399;SDS011;10031;51.180;17.168;2023-02-26T10:41:48;4.60;;;3.13;;
10399;SDS011;10031;51.180;17.168;2023-02-26T10:49:36;4.63;;;2.80;;
10399;SDS011;10031;51.180;17.168;2023-02-26T10:52:18;4.00;;;3.03;;
10399;SDS011;10031;51.180;17.168;2023-02-26T10:57:20;3.47;;;3.03;;
10399;SDS011;10031;51.180;17.168;2023-02-26T10:59:48;3.07;;;2.43;;
10399;SDS011;10031;51.180;17.168;2023-02-26T11:02:25;4.00;;;2.47;;
10399;SDS011;10031;51.180;17.168;2023-02-26T11:04:53;4.17;;;3.13;;
10399;SDS011;10031;51.180;17.168;2023-02-26T11:07:20;7.37;;;3.13;;
10399;SDS011;10031;51.180;17.168;2023-02-26T11:09:46;3.13;;;1.93;;
10399;SDS011;10031;51.180;17.168;2023-02-26T11:12:13;4.73;;;2.80;;
10399;SDS011;10031;51.180;17.168;2023-02-26T11:14:42;3.20;;;2.80;;
10399;SDS011;10031;51.180;17.168;2023-02-26T11:17:11;7.27;;;3.33;;
10399;SDS011;10031;51.180;17.168;2023-02-26T11:19:40;4.07;;;2.47;;
10399;SDS011;10031;51.180;17.168;2023-02-26T11:22:12;3.17;;;2.63;;
10399;SDS011;10031;51.180;17.168;2023-02-26T11:24:40;4.33;;;2.80;;
10399;SDS011;10031;51.180;17.168;2023-02-26T11:27:13;3.20;;;2.73;;
10399;SDS011;10031;51.180;17.168;2023-02-26T11:29:55;4.33;;;2.53;;
10399;SDS011;10031;51.180;17.168;2023-02-26T11:32:34;4.50;;;3.07;;
10399;SDS011;10031;51.180;17.168;2023-02-26T11:35:06;4.03;;;2.60;;
10399;SDS011;10031;51.180;17.168;2023-02-26T11:37:34;3.70;;;2.93;;
10399;SDS011;10031;51.180;17.168;2023-02-26T11:40:05;3.57;;;3.03;;
10399;SDS011;10031;51.180;17.168;2023-02-26T11:42:37;5.03;;;3.37;;
10399;SDS011;10031;51.180;17.168;2023-02-26T11:45:04;8.73;;;1.73;;
10399;SDS011;10031;51.180;17.168;2023-02-26T11:47:30;4.93;;;3.23;;
10399;SDS011;10031;51.180;17.168;2023-02-26T11:52:34;4.63;;;3.07;;
10399;SDS011;10031;51.180;17.168;2023-02-26T11:57:52;4.73;;;3.40;;
10399;SDS011;10031;51.180;17.168;2023-02-26T12:00:23;2.47;;;2.07;;
10399;SDS011;10031;51.180;17.168;2023-02-26T12:02:50;3.80;;;2.30;;
10399;SDS011;10031;51.180;17.168;2023-02-26T12:05:16;4.73;;;2.70;;
10399;SDS011;10031;51.180;17.168;2023-02-26T12:07:43;3.90;;;2.20;;
10399;SDS011;10031;51.180;17.168;2023-02-26T12:10:18;3.70;;;2.50;;
10399;SDS011;10031;51.180;17.168;2023-02-26T12:15:45;2.90;;;2.40;;
10399;SDS011;10031;51.180;17.168;2023-02-26T12:38:26;3.23;;;2.03;;
10399;SDS011;10031;51.180;17.168;2023-02-26T12:41:13;3.70;;;2.60;;
10399;SDS011;10031;51.180;17.168;2023-02-26T12:43:45;4.23;;;2.10;;
10399;SDS011;10031;51.180;17.168;2023-02-26T12:46:26;3.77;;;2.80;;
10399;SDS011;10031;51.180;17.168;2023-02-26T12:51:59;7.07;;;3.20;;
10399;SDS011;10031;51.180;17.168;2023-02-26T12:59:34;7.83;;;3.30;;
10399;SDS011;10031;51.180;17.168;2023-02-26T13:12:21;2.47;;;1.97;;
10399;SDS011;10031;51.180;17.168;2023-02-26T13:22:15;2.57;;;2.10;;
10399;SDS011;10031;51.180;17.168;2023-02-26T13:24:44;4.37;;;2.70;;
10399;SDS011;10031;51.180;17.168;2023-02-26T13:27:11;3.17;;;1.63;;
10399;SDS011;10031;51.180;17.168;2023-02-26T13:29:44;8.10;;;2.63;;
10399;SDS011;10031;51.180;17.168;2023-02-26T13:32:16;3.83;;;2.23;;
10399;SDS011;10031;51.180;17.168;2023-02-26T13:34:57;1.73;;;1.40;;
10399;SDS011;10031;51.180;17.168;2023-02-26T13:37:38;3.13;;;1.47;;
10399;SDS011;10031;51.180;17.168;2023-02-26T13:42:52;2.67;;;2.10;;
10399;SDS011;10031;51.180;17.168;2023-02-26T13:45:33;3.60;;;2.10;;
10399;SDS011;10031;51.180;17.168;2023-02-26T13:48:09;5.63;;;2.93;;
10399;SDS011;10031;51.180;17.168;2023-02-26T13:50:42;7.00;;;2.97;;
10399;SDS011;10031;51.180;17.168;2023-02-26T13:55:56;7.20;;;3.40;;
10399;SDS011;10031;51.180;17.168;2023-02-26T13:58:35;8.70;;;4.37;;
10399;SDS011;10031;51.180;17.168;2023-02-26T14:03:32;7.40;;;3.53;;
10399;SDS011;10031;51.180;17.168;2023-02-26T14:06:09;11.60;;;6.13;;
10399;SDS011;10031;51.180;17.168;2023-02-26T14:08:48;13.57;;;6.23;;
10399;SDS011;10031;51.180;17.168;2023-02-26T14:16:35;4.77;;;3.50;;
10399;SDS011;10031;51.180;17.168;2023-02-26T14:21:34;7.23;;;3.37;;
10399;SDS011;10031;51.180;17.168;2023-02-26T14:24:05;6.07;;;3.50;;
10399;SDS011;10031;51.180;17.168;2023-02-26T14:26:37;5.83;;;3.40;;
10399;SDS011;10031;51.180;17.168;2023-02-26T14:34:15;8.90;;;3.77;;
10399;SDS011;10031;51.180;17.168;2023-02-26T14:36:50;4.53;;;2.67;;
10399;SDS011;10031;51.180;17.168;2023-02-26T14:39:24;3.23;;;2.50;;
10399;SDS011;10031;51.180;17.168;2023-02-26T14:41:52;9.17;;;3.00;;
10399;SDS011;10031;51.180;17.168;2023-02-26T14:45:05;4.77;;;2.53;;
10399;SDS011;10031;51.180;17.168;2023-02-26T14:47:10;9.57;;;3.90;;
10399;SDS011;10031;51.180;17.168;2023-02-26T14:49:39;7.47;;;5.03;;
10399;SDS011;10031;51.180;17.168;2023-02-26T15:05:20;8.63;;;4.17;;
10399;SDS011;10031;51.180;17.168;2023-02-26T15:08:01;6.33;;;3.80;;
10399;SDS011;10031;51.180;17.168;2023-02-26T15:15:29;7.30;;;2.90;;
10399;SDS011;10031;51.180;17.168;2023-02-26T15:20:48;5.90;;;2.60;;
10399;SDS011;10031;51.180;17.168;2023-02-26T15:25:48;6.47;;;2.53;;
10399;SDS011;10031;51.180;17.168;2023-02-26T15:30:47;3.70;;;2.33;;
10399;SDS011;10031;51.180;17.168;2023-02-26T15:33:14;5.17;;;2.93;;
10399;SDS011;10031;51.180;17.168;2023-02-26T15:35:42;8.57;;;3.47;;
10399;SDS011;10031;51.180;17.168;2023-02-26T15:38:09;4.53;;;2.80;;
10399;SDS011;10031;51.180;17.168;2023-02-26T15:40:35;5.90;;;3.20;;
10399;SDS011;10031;51.180;17.168;2023-02-26T15:43:02;6.30;;;3.17;;
10399;SDS011;10031;51.180;17.168;2023-02-26T15:45:37;6.43;;;3.30;;
10399;SDS011;10031;51.180;17.168;2023-02-26T15:48:06;3.53;;;2.50;;
10399;SDS011;10031;51.180;17.168;2023-02-26T15:50:37;6.60;;;2.80;;
10399;SDS011;10031;51.180;17.168;2023-02-26T15:53:05;7.23;;;3.23;;
10399;SDS011;10031;51.180;17.168;2023-02-26T15:55:37;6.27;;;3.00;;
10399;SDS011;10031;51.180;17.168;2023-02-26T15:58:04;7.90;;;4.07;;
10399;SDS011;10031;51.180;17.168;2023-02-26T16:00:31;5.80;;;3.20;;
10399;SDS011;10031;51.180;17.168;2023-02-26T16:02:59;10.17;;;3.70;;
10399;SDS011;10031;51.180;17.168;2023-02-26T16:05:27;7.00;;;4.07;;
10399;SDS011;10031;51.180;17.168;2023-02-26T16:07:55;7.73;;;4.07;;
10399;SDS011;10031;51.180;17.168;2023-02-26T16:10:32;8.77;;;3.87;;
10399;SDS011;10031;51.180;17.168;2023-02-26T16:13:00;8.80;;;3.93;;
10399;SDS011;10031;51.180;17.168;2023-02-26T16:15:28;8.57;;;3.70;;
10399;SDS011;10031;51.180;17.168;2023-02-26T16:17:57;9.83;;;4.23;;
10399;SDS011;10031;51.180;17.168;2023-02-26T16:20:25;5.70;;;3.37;;
10399;SDS011;10031;51.180;17.168;2023-02-26T16:25:24;10.30;;;4.07;;
10399;SDS011;10031;51.180;17.168;2023-02-26T16:27:57;10.20;;;4.00;;
10399;SDS011;10031;51.180;17.168;2023-02-26T16:30:27;7.37;;;3.50;;
10399;SDS011;10031;51.180;17.168;2023-02-26T16:32:55;10.10;;;4.17;;
10399;SDS011;10031;51.180;17.168;2023-02-26T16:35:26;6.30;;;3.80;;
10399;SDS011;10031;51.180;17.168;2023-02-26T16:37:53;9.23;;;4.50;;
10399;SDS011;10031;51.180;17.168;2023-02-26T16:40:24;10.57;;;4.20;;
10399;SDS011;10031;51.180;17.168;2023-02-26T16:47:53;10.63;;;4.83;;
10399;SDS011;10031;51.180;17.168;2023-02-26T16:50:20;10.17;;;5.20;;
10399;SDS011;10031;51.180;17.168;2023-02-26T16:55:28;13.27;;;6.40;;
10399;SDS011;10031;51.180;17.168;2023-02-26T16:57:55;13.57;;;5.67;;
10399;SDS011;10031;51.180;17.168;2023-02-26T17:00:22;14.60;;;5.33;;
10399;SDS011;10031;51.180;17.168;2023-02-26T17:02:56;14.20;;;6.03;;
10399;SDS011;10031;51.180;17.168;2023-02-26T17:05:31;15.90;;;6.03;;
10399;SDS011;10031;51.180;17.168;2023-02-26T17:08:15;14.20;;;5.63;;
10399;SDS011;10031;51.180;17.168;2023-02-26T17:11:02;13.40;;;4.73;;
10399;SDS011;10031;51.180;17.168;2023-02-26T17:13:30;14.93;;;5.80;;
10399;SDS011;10031;51.180;17.168;2023-02-26T17:16:07;11.67;;;5.33;;
10399;SDS011;10031;51.180;17.168;2023-02-26T17:21:04;8.23;;;4.23;;
10399;SDS011;10031;51.180;17.168;2023-02-26T17:23:31;8.97;;;4.60;;
10399;SDS011;10031;51.180;17.168;2023-02-26T17:25:58;9.93;;;4.43;;
10399;SDS011;10031;51.180;17.168;2023-02-26T17:28:27;13.23;;;6.87;;
10399;SDS011;10031;51.180;17.168;2023-02-26T17:30:54;26.70;;;10.30;;
10399;SDS011;10031;51.180;17.168;2023-02-26T17:33:20;27.47;;;11.63;;
10399;SDS011;10031;51.180;17.168;2023-02-26T17:35:47;14.07;;;6.90;;
10399;SDS011;10031;51.180;17.168;2023-02-26T17:38:13;8.17;;;4.50;;
10399;SDS011;10031;51.180;17.168;2023-02-26T17:40:41;9.07;;;4.23;;
10399;SDS011;10031;51.180;17.168;2023-02-26T17:43:07;12.93;;;5.60;;
10399;SDS011;10031;51.180;17.168;2023-02-26T17:45:35;11.83;;;5.60;;
10399;SDS011;10031;51.180;17.168;2023-02-26T17:48:03;16.47;;;7.20;;
10399;SDS011;10031;51.180;17.168;2023-02-26T17:50:44;20.90;;;7.47;;
10399;SDS011;10031;51.180;17.168;2023-02-26T17:53:11;16.57;;;6.67;;
10399;SDS011;10031;51.180;17.168;2023-02-26T17:55:37;13.60;;;7.07;;
10399;SDS011;10031;51.180;17.168;2023-02-26T17:58:05;11.57;;;5.90;;
10399;SDS011;10031;51.180;17.168;2023-02-26T18:00:32;12.20;;;4.67;;
10399;SDS011;10031;51.180;17.168;2023-02-26T18:03:04;9.57;;;4.60;;